createdAt,value
2022-11-24T00:01:13.255Z,4.43
2022-11-24T00:03:42.497Z,5.38
2022-11-24T00:06:12.419Z,3.75
2022-11-24T00:08:41.379Z,6.70
2022-11-24T00:11:11.106Z,2.92
2022-11-24T00:13:40.066Z,6.05
2022-11-24T00:16:10.381Z,4.40
2022-11-24T00:18:38.676Z,7.25
2022-11-24T00:21:08.174Z,2.22
2022-11-24T00:23:36.643Z,4.18
2022-11-24T00:26:08.419Z,7.22
2022-11-24T00:28:37.022Z,9.07
2022-11-24T00:31:06.391Z,7.30
2022-11-24T00:33:34.467Z,9.70
2022-11-24T00:36:02.139Z,1.55
2022-11-24T00:38:31.171Z,5.22
2022-11-24T00:40:58.925Z,3.47
2022-11-24T00:43:26.812Z,6.90
2022-11-24T00:45:54.626Z,8.40
2022-11-24T00:48:22.880Z,7.07
2022-11-24T00:50:58.220Z,3.15
2022-11-24T00:53:26.643Z,12.38
2022-11-24T00:55:56.182Z,7.78
2022-11-24T00:58:25.147Z,9.45
2022-11-24T01:00:53.527Z,5.80
2022-11-24T01:03:22.544Z,10.95
2022-11-24T01:05:50.299Z,10.55
2022-11-24T01:08:18.037Z,7.03
2022-11-24T01:10:45.702Z,7.43
2022-11-24T01:13:14.832Z,9.50
2022-11-24T01:15:42.571Z,7.78
2022-11-24T01:18:10.911Z,16.70
2022-11-24T01:20:38.928Z,8.93
2022-11-24T01:23:07.431Z,12.20
2022-11-24T01:25:35.105Z,10.63
2022-11-24T01:28:02.879Z,10.57
2022-11-24T01:30:31.984Z,9.82
2022-11-24T01:32:59.755Z,13.07
2022-11-24T01:35:29.160Z,8.70
2022-11-24T01:37:57.133Z,8.60
2022-11-24T01:40:25.084Z,8.55
2022-11-24T01:42:53.954Z,11.80
2022-11-24T01:45:35.794Z,8.45
2022-11-24T01:48:06.998Z,7.35
2022-11-24T01:50:36.712Z,12.05
2022-11-24T01:53:05.764Z,9.30
2022-11-24T01:55:37.592Z,10.63
2022-11-24T01:58:08.368Z,15.07
2022-11-24T02:00:39.489Z,8.07
2022-11-24T02:03:08.641Z,10.10
2022-11-24T02:05:44.190Z,7.40
2022-11-24T02:08:21.112Z,11.48
2022-11-24T02:10:49.606Z,13.30
2022-11-24T02:13:18.040Z,8.73
2022-11-24T02:15:47.316Z,11.32
2022-11-24T02:18:15.169Z,7.22
2022-11-24T02:20:43.127Z,13.82
2022-11-24T02:23:19.743Z,10.15
2022-11-24T02:25:57.313Z,9.55
2022-11-24T02:28:30.472Z,7.10
2022-11-24T02:30:59.687Z,9.77
2022-11-24T02:33:28.131Z,7.18
2022-11-24T02:35:55.851Z,12.73
2022-11-24T02:38:31.304Z,12.23
2022-11-24T02:41:01.694Z,11.02
2022-11-24T02:43:33.718Z,10.18
2022-11-24T02:46:01.492Z,13.30
2022-11-24T02:48:29.219Z,6.68
2022-11-24T02:50:56.914Z,6.78
2022-11-24T02:53:24.894Z,11.93
2022-11-24T02:55:53.136Z,10.00
2022-11-24T02:58:21.408Z,17.48
2022-11-24T03:00:50.540Z,12.10
2022-11-24T03:03:18.630Z,7.97
2022-11-24T03:05:46.347Z,9.82
2022-11-24T03:08:14.344Z,11.35
2022-11-24T03:10:42.202Z,10.25
2022-11-24T03:13:10.155Z,11.45
2022-11-24T03:15:38.448Z,8.27
2022-11-24T03:18:07.658Z,8.80
2022-11-24T03:20:35.353Z,8.52
2022-11-24T03:23:03.058Z,8.95
2022-11-24T03:25:30.712Z,13.32
2022-11-24T03:27:58.861Z,9.68
2022-11-24T03:30:26.558Z,5.35
2022-11-24T03:32:54.643Z,10.57
2022-11-24T03:35:24.467Z,10.25
2022-11-24T03:37:52.149Z,16.63
2022-11-24T03:40:20.035Z,12.25
2022-11-24T03:42:47.700Z,9.75
2022-11-24T03:45:44.188Z,7.22
2022-11-24T03:48:03.557Z,11.18
2022-11-24T03:50:32.892Z,9.10
2022-11-24T03:53:00.609Z,8.25
2022-11-24T03:55:28.310Z,5.50
2022-11-24T03:57:56.194Z,9.05
2022-11-24T04:00:24.012Z,4.75
2022-11-24T04:02:51.820Z,7.35
2022-11-24T04:05:19.792Z,2.28
2022-11-24T04:07:48.925Z,4.85
2022-11-24T04:10:16.755Z,5.93
2022-11-24T04:12:46.605Z,6.75
2022-11-24T04:15:17.130Z,5.40
2022-11-24T04:17:45.527Z,2.63
2022-11-24T04:20:14.002Z,6.90
2022-11-24T04:22:41.984Z,4.20
2022-11-24T04:25:12.137Z,6.00
2022-11-24T04:27:40.276Z,4.22
2022-11-24T04:30:09.785Z,12.73
2022-11-24T04:32:37.822Z,8.65
2022-11-24T04:35:06.052Z,8.23
2022-11-24T04:37:35.135Z,3.65
2022-11-24T04:40:03.098Z,4.53
2022-11-24T04:42:32.223Z,3.10
2022-11-24T04:44:59.985Z,3.35
2022-11-24T04:47:28.730Z,4.97
2022-11-24T04:49:56.654Z,6.07
2022-11-24T04:52:25.810Z,8.57
2022-11-24T04:54:53.796Z,7.40
2022-11-24T04:57:23.880Z,1.63
2022-11-24T04:59:53.829Z,3.75
2022-11-24T05:02:22.097Z,9.73
2022-11-24T05:04:50.830Z,4.57
2022-11-24T05:07:19.724Z,7.65
2022-11-24T05:10:05.616Z,4.03
2022-11-24T05:12:33.571Z,8.48
2022-11-24T05:15:04.856Z,6.63
2022-11-24T05:17:34.571Z,3.78
2022-11-24T05:20:02.592Z,6.80
2022-11-24T05:22:31.640Z,0.85
2022-11-24T05:24:59.334Z,5.22
2022-11-24T05:27:27.546Z,6.07
2022-11-24T05:29:55.363Z,4.57
2022-11-24T05:32:24.729Z,3.92
2022-11-24T05:34:53.864Z,7.72
2022-11-24T05:37:22.002Z,12.23
2022-11-24T05:39:49.720Z,8.38
2022-11-24T05:42:35.299Z,6.15
2022-11-24T05:45:03.532Z,9.90
2022-11-24T05:47:33.068Z,5.25
2022-11-24T05:50:00.768Z,5.75
2022-11-24T05:52:28.583Z,3.30
2022-11-24T05:54:56.375Z,5.68
2022-11-24T05:57:24.072Z,5.75
2022-11-24T05:59:51.724Z,6.18
2022-11-24T06:02:19.803Z,10.05
2022-11-24T06:04:48.996Z,8.82
2022-11-24T06:07:17.148Z,4.70
2022-11-24T06:09:45.249Z,4.07
2022-11-24T06:12:14.298Z,10.25
2022-11-24T06:14:42.556Z,5.50
2022-11-24T06:17:11.200Z,11.07
2022-11-24T06:19:42.059Z,8.27
2022-11-24T06:22:11.454Z,3.70
2022-11-24T06:24:39.220Z,9.73
2022-11-24T06:27:07.601Z,3.65
2022-11-24T06:29:35.462Z,4.22
2022-11-24T06:32:03.209Z,14.45
2022-11-24T06:34:31.197Z,8.30
2022-11-24T06:36:59.092Z,4.85
2022-11-24T06:39:28.296Z,12.05
2022-11-24T06:41:56.120Z,10.00
2022-11-24T06:44:23.855Z,7.53
2022-11-24T06:46:51.524Z,7.25
2022-11-24T06:49:19.681Z,4.95
2022-11-24T06:51:47.378Z,7.13
2022-11-24T06:54:17.010Z,12.40
2022-11-24T06:56:46.157Z,10.57
2022-11-24T06:59:17.443Z,10.90
2022-11-24T07:01:45.154Z,8.23
2022-11-24T07:04:12.925Z,8.40
2022-11-24T07:06:41.402Z,13.48
2022-11-24T07:09:10.159Z,11.80
2022-11-24T07:11:38.843Z,8.18
2022-11-24T07:14:07.919Z,6.38
2022-11-24T07:16:35.941Z,9.40
2022-11-24T07:19:04.087Z,10.82
2022-11-24T07:21:31.838Z,8.90
2022-11-24T07:24:00.111Z,12.98
2022-11-24T07:26:28.538Z,8.05
2022-11-24T07:28:56.333Z,12.15
2022-11-24T07:31:26.138Z,11.40
2022-11-24T07:33:55.783Z,6.00
2022-11-24T07:36:24.152Z,9.10
2022-11-24T07:38:52.125Z,7.70
2022-11-24T07:41:20.943Z,7.40
2022-11-24T07:43:49.578Z,4.30
2022-11-24T07:46:20.009Z,5.68
2022-11-24T07:48:49.230Z,12.88
2022-11-24T07:51:17.227Z,11.10
2022-11-24T07:53:46.300Z,4.15
2022-11-24T07:56:14.343Z,4.13
2022-11-24T07:58:42.057Z,1.05
2022-11-24T08:01:12.238Z,5.35
2022-11-24T08:03:40.805Z,1.40
2022-11-24T08:08:59.257Z,6.43
2022-11-24T08:11:27.285Z,2.05
2022-11-24T08:13:55.209Z,2.13
2022-11-24T08:16:22.968Z,2.80
2022-11-24T08:18:51.670Z,0.80
2022-11-24T08:21:23.114Z,0.98
2022-11-24T08:23:51.088Z,1.48
2022-11-24T08:26:19.367Z,0.38
2022-11-24T08:28:48.283Z,2.70
2022-11-24T08:31:19.506Z,0.30
2022-11-24T08:33:47.635Z,0.93
2022-11-24T08:36:17.236Z,1.20
2022-11-24T08:38:48.891Z,0.85
2022-11-24T08:41:18.205Z,0.70
2022-11-24T08:43:46.102Z,0.35
2022-11-24T08:46:16.918Z,0.75
2022-11-24T08:48:48.089Z,1.00
2022-11-24T08:51:18.027Z,0.75
2022-11-24T08:53:47.232Z,1.83
2022-11-24T08:56:15.463Z,0.30
2022-11-24T08:58:43.604Z,0.70
2022-11-24T09:01:14.029Z,0.40
2022-11-24T09:03:48.511Z,0.43
2022-11-24T09:06:19.287Z,2.42
2022-11-24T09:08:48.672Z,0.63
2022-11-24T09:11:17.948Z,1.98
2022-11-24T09:13:46.399Z,0.38
2022-11-24T09:16:15.934Z,3.67
2022-11-24T09:18:43.965Z,0.63
2022-11-24T09:21:13.790Z,0.82
2022-11-24T09:23:42.877Z,0.93
2022-11-24T09:26:14.128Z,1.48
2022-11-24T09:28:42.208Z,0.30
2022-11-24T09:31:11.863Z,1.65
2022-11-24T09:33:39.972Z,0.77
2022-11-24T09:36:08.970Z,0.47
2022-11-24T09:38:36.894Z,3.80
2022-11-24T09:41:28.182Z,0.80
2022-11-24T09:44:06.235Z,0.50
2022-11-24T09:46:41.371Z,0.38
2022-11-24T09:49:16.130Z,0.40
2022-11-24T09:51:47.878Z,1.08
2022-11-24T09:54:20.455Z,0.50
2022-11-24T09:56:51.374Z,2.20
2022-11-24T09:59:21.214Z,0.40
2022-11-24T10:01:50.964Z,1.80
2022-11-24T10:04:22.531Z,1.23
2022-11-24T10:07:01.196Z,0.82
2022-11-24T10:09:40.090Z,0.50
2022-11-24T10:12:21.425Z,0.50
2022-11-24T10:15:01.839Z,0.95
2022-11-24T10:17:43.460Z,0.47
2022-11-24T10:20:21.723Z,0.93
2022-11-24T10:22:59.359Z,2.60
2022-11-24T10:25:37.870Z,0.22
2022-11-24T10:28:13.667Z,2.70
2022-11-24T10:30:41.782Z,0.30
2022-11-24T10:33:17.814Z,0.43
2022-11-24T10:35:49.265Z,0.30
2022-11-24T10:38:30.833Z,2.15
2022-11-24T10:41:04.233Z,2.10
2022-11-24T10:43:33.335Z,0.50
2022-11-24T10:46:11.033Z,0.30
2022-11-24T10:48:42.822Z,2.10
2022-11-24T10:51:34.508Z,0.82
2022-11-24T10:54:06.857Z,1.17
2022-11-24T10:56:40.227Z,0.88
2022-11-24T10:59:30.193Z,1.20
2022-11-24T11:01:58.052Z,2.28
2022-11-24T11:04:28.919Z,3.50
2022-11-24T11:07:10.948Z,3.60
2022-11-24T11:09:38.742Z,4.22
2022-11-24T11:15:28.172Z,6.15
2022-11-24T11:17:59.027Z,2.28
2022-11-24T11:20:32.548Z,2.15
2022-11-24T11:23:03.108Z,1.03
2022-11-24T11:25:33.997Z,1.40
2022-11-24T11:28:29.662Z,1.67
2022-11-24T11:34:08.328Z,1.75
2022-11-24T11:36:43.068Z,4.43
2022-11-24T11:39:24.124Z,5.38
2022-11-24T11:41:57.567Z,3.22
2022-11-24T11:44:35.699Z,5.63
2022-11-24T11:47:15.110Z,4.97
2022-11-24T11:49:43.103Z,5.15
2022-11-24T11:52:40.491Z,8.23
2022-11-24T11:55:32.962Z,9.63
2022-11-24T11:58:14.425Z,5.88
2022-11-24T12:00:48.840Z,7.60
2022-11-24T12:06:16.409Z,6.13
2022-11-24T12:09:18.514Z,4.70
2022-11-24T12:11:44.666Z,3.05
2022-11-24T12:16:54.336Z,8.23
2022-11-24T12:19:36.971Z,4.30
2022-11-24T12:22:18.345Z,3.60
2022-11-24T12:24:54.511Z,6.43
2022-11-24T12:27:34.303Z,11.65
2022-11-24T12:30:12.082Z,3.80
2022-11-24T12:33:08.573Z,5.03
2022-11-24T12:35:39.740Z,3.35
2022-11-24T12:38:23.707Z,5.28
2022-11-24T12:41:33.673Z,7.67
2022-11-24T12:43:58.170Z,5.15
2022-11-24T12:46:35.522Z,10.40
2022-11-24T12:49:15.582Z,5.03
2022-11-24T12:51:45.654Z,3.63
2022-11-24T12:54:18.401Z,5.10
2022-11-24T12:56:54.620Z,4.93
2022-11-24T12:59:33.108Z,6.20
2022-11-24T13:02:13.657Z,4.88
2022-11-24T13:04:48.238Z,5.32
2022-11-24T13:10:18.579Z,3.50
2022-11-24T13:12:58.556Z,5.43
2022-11-24T13:15:45.250Z,2.33
2022-11-24T13:18:44.031Z,4.03
2022-11-24T13:21:48.068Z,4.40
2022-11-24T13:24:27.393Z,8.02
2022-11-24T13:27:19.775Z,4.90
2022-11-24T13:29:49.685Z,7.93
2022-11-24T13:33:00.167Z,3.60
2022-11-24T13:35:27.848Z,1.83
2022-11-24T13:37:55.671Z,6.85
2022-11-24T13:40:54.267Z,1.30
2022-11-24T13:43:30.127Z,7.68
2022-11-24T13:45:59.160Z,8.77
2022-11-24T13:49:03.808Z,5.20
2022-11-24T13:51:31.624Z,2.50
2022-11-24T13:54:01.050Z,7.63
2022-11-24T13:56:31.534Z,4.25
2022-11-24T13:59:01.784Z,2.75
2022-11-24T14:01:33.245Z,4.47
2022-11-24T14:04:34.009Z,2.45
2022-11-24T14:07:08.441Z,4.25
2022-11-24T14:09:42.934Z,7.45
2022-11-24T14:12:15.329Z,0.90
2022-11-24T14:14:45.108Z,0.88
2022-11-24T14:17:18.803Z,3.45
2022-11-24T14:19:48.547Z,6.65
2022-11-24T14:22:18.874Z,6.57
2022-11-24T14:24:52.137Z,2.50
2022-11-24T14:27:30.234Z,3.42
2022-11-24T14:29:59.723Z,1.77
2022-11-24T14:32:29.164Z,2.20
2022-11-24T14:34:57.194Z,6.05
2022-11-24T14:37:25.153Z,3.13
2022-11-24T14:39:54.175Z,1.88
2022-11-24T14:42:24.084Z,2.70
2022-11-24T14:44:55.617Z,3.17
2022-11-24T14:47:31.408Z,2.20
2022-11-24T14:50:12.980Z,3.80
2022-11-24T14:52:46.800Z,10.18
2022-11-24T14:55:28.993Z,4.95
2022-11-24T14:57:57.246Z,5.78
2022-11-24T15:00:30.916Z,2.45
2022-11-24T15:03:16.944Z,11.13
2022-11-24T15:05:54.716Z,3.70
2022-11-24T15:08:25.056Z,2.05
2022-11-24T15:10:59.197Z,6.40
2022-11-24T15:16:02.435Z,1.45
2022-11-24T15:18:38.400Z,8.13
2022-11-24T15:21:07.977Z,4.35
2022-11-24T15:23:36.666Z,2.63
2022-11-24T15:26:30.688Z,2.33
2022-11-24T15:29:00.183Z,4.53
2022-11-24T15:31:28.024Z,1.15
2022-11-24T15:33:55.830Z,15.00
2022-11-24T15:36:24.983Z,8.05
2022-11-24T15:38:52.864Z,1.77
2022-11-24T15:41:23.053Z,4.45
2022-11-24T15:43:50.987Z,7.63
2022-11-24T15:46:18.796Z,5.95
2022-11-24T15:48:46.817Z,6.35
2022-11-24T15:51:15.862Z,5.35
2022-11-24T15:53:48.391Z,8.38
2022-11-24T15:56:25.416Z,11.70
2022-11-24T15:58:54.211Z,10.13
2022-11-24T16:01:24.246Z,10.75
2022-11-24T16:03:52.196Z,8.00
2022-11-24T16:06:24.943Z,7.00
2022-11-24T16:08:55.497Z,5.88
2022-11-24T16:11:23.599Z,5.70
2022-11-24T16:13:54.026Z,7.07
2022-11-24T16:16:23.128Z,10.50
2022-11-24T16:18:50.910Z,16.88
2022-11-24T16:21:18.901Z,29.08
2022-11-24T16:23:47.682Z,23.33
2022-11-24T16:26:16.942Z,5.20
2022-11-24T16:28:45.761Z,12.48
2022-11-24T16:31:15.691Z,14.60
2022-11-24T16:33:44.718Z,12.93
2022-11-24T16:36:12.581Z,10.30
2022-11-24T16:38:40.290Z,13.32
2022-11-24T16:41:09.438Z,12.00
2022-11-24T16:43:39.083Z,10.50
2022-11-24T16:46:18.371Z,10.25
2022-11-24T16:48:47.045Z,12.85
2022-11-24T16:51:15.739Z,7.45
2022-11-24T16:53:44.180Z,9.95
2022-11-24T16:56:12.552Z,9.30
2022-11-24T16:58:42.199Z,7.38
2022-11-24T17:01:11.740Z,5.45
2022-11-24T17:03:39.856Z,7.78
2022-11-24T17:06:09.932Z,8.82
2022-11-24T17:08:39.806Z,6.60
2022-11-24T17:11:07.798Z,10.45
2022-11-24T17:13:35.647Z,8.68
2022-11-24T17:16:06.434Z,9.95
2022-11-24T17:18:35.042Z,5.47
2022-11-24T17:21:09.207Z,11.95
2022-11-24T17:23:38.168Z,9.07
2022-11-24T17:26:07.536Z,6.15
2022-11-24T17:28:35.807Z,8.65
2022-11-24T17:31:08.674Z,3.53
2022-11-24T17:33:37.180Z,10.77
2022-11-24T17:36:05.868Z,6.85
2022-11-24T17:38:35.045Z,9.75
2022-11-24T17:41:03.112Z,6.90
2022-11-24T17:43:30.829Z,8.70
2022-11-24T17:46:01.961Z,8.52
2022-11-24T17:48:31.748Z,6.85
2022-11-24T17:51:00.984Z,9.65
2022-11-24T17:53:28.772Z,6.05
2022-11-24T17:56:00.148Z,9.65
2022-11-24T17:58:28.675Z,8.35
2022-11-24T18:00:56.533Z,9.45
2022-11-24T18:03:25.525Z,13.45
2022-11-24T18:05:54.671Z,6.50
2022-11-24T18:08:22.397Z,7.97
2022-11-24T18:10:50.146Z,9.50
2022-11-24T18:13:34.329Z,9.85
2022-11-24T18:16:08.015Z,9.00
2022-11-24T18:18:40.146Z,10.65
2022-11-24T18:21:14.050Z,9.73
2022-11-24T18:23:43.299Z,8.27
2022-11-24T18:26:14.785Z,8.07
2022-11-24T18:28:43.522Z,11.35
2022-11-24T18:31:13.012Z,8.90
2022-11-24T18:33:42.387Z,8.98
2022-11-24T18:36:14.948Z,10.73
2022-11-24T18:38:42.815Z,8.98
2022-11-24T18:41:12.858Z,7.28
2022-11-24T18:43:40.967Z,11.38
2022-11-24T18:46:12.088Z,11.35
2022-11-24T18:48:39.914Z,8.98
2022-11-24T18:51:08.629Z,11.93
2022-11-24T18:53:37.739Z,5.93
2022-11-24T18:56:07.371Z,9.90
2022-11-24T18:58:36.559Z,11.07
2022-11-24T19:01:09.089Z,13.40
2022-11-24T19:03:47.863Z,6.05
2022-11-24T19:06:18.312Z,8.02
2022-11-24T19:08:48.015Z,12.13
2022-11-24T19:11:20.233Z,11.40
2022-11-24T19:13:49.281Z,13.25
2022-11-24T19:16:17.811Z,10.68
2022-11-24T19:18:51.859Z,15.52
2022-11-24T19:21:21.641Z,8.98
2022-11-24T19:23:51.062Z,6.78
2022-11-24T19:26:19.512Z,11.95
2022-11-24T19:28:47.364Z,12.50
2022-11-24T19:31:17.066Z,11.70
2022-11-24T19:33:45.753Z,9.75
2022-11-24T19:36:15.226Z,11.15
2022-11-24T19:38:43.690Z,10.32
2022-11-24T19:41:16.075Z,11.63
2022-11-24T19:43:43.952Z,9.23
2022-11-24T19:46:13.263Z,6.78
2022-11-24T19:48:43.124Z,10.63
2022-11-24T19:51:15.344Z,8.40
2022-11-24T19:53:43.345Z,18.38
2022-11-24T19:56:14.076Z,13.00
2022-11-24T19:58:42.459Z,13.73
2022-11-24T20:01:11.642Z,13.43
2022-11-24T20:03:40.515Z,11.13
2022-11-24T20:06:12.318Z,13.95
2022-11-24T20:08:42.551Z,15.95
2022-11-24T20:11:15.475Z,12.07
2022-11-24T20:13:45.353Z,13.30
2022-11-24T20:16:17.603Z,17.13
2022-11-24T20:18:47.311Z,10.02
2022-11-24T20:21:17.660Z,14.32
2022-11-24T20:23:47.388Z,15.45
2022-11-24T20:26:19.639Z,14.93
2022-11-24T20:28:48.108Z,16.63
2022-11-24T20:31:18.350Z,18.77
2022-11-24T20:33:46.663Z,22.10
2022-11-24T20:36:16.791Z,19.58
2022-11-24T20:38:46.096Z,18.98
2022-11-24T20:41:17.161Z,22.13
2022-11-24T20:43:45.972Z,17.88
2022-11-24T20:46:15.733Z,15.57
2022-11-24T20:48:43.972Z,17.77
2022-11-24T20:51:13.795Z,17.50
2022-11-24T20:53:42.017Z,21.38
2022-11-24T20:56:12.239Z,20.75
2022-11-24T20:58:41.558Z,20.35
2022-11-24T21:01:11.345Z,23.63
2022-11-24T21:03:43.049Z,22.92
2022-11-24T21:06:12.149Z,19.58
2022-11-24T21:08:41.699Z,22.73
2022-11-24T21:11:11.021Z,24.05
2022-11-24T21:13:40.265Z,19.88
2022-11-24T21:16:14.888Z,24.00
2022-11-24T21:18:42.904Z,25.95
2022-11-24T21:21:10.633Z,25.35
2022-11-24T21:23:38.413Z,25.17
2022-11-24T21:26:13.032Z,20.05
2022-11-24T21:28:43.895Z,23.63
2022-11-24T21:31:14.626Z,24.38
2022-11-24T21:33:43.364Z,19.17
2022-11-24T21:36:11.449Z,26.98
2022-11-24T21:38:39.322Z,20.67
2022-11-24T21:41:08.588Z,16.95
2022-11-24T21:43:36.635Z,21.25
2022-11-24T21:46:06.605Z,16.70
2022-11-24T21:48:37.377Z,22.13
2022-11-24T21:51:07.137Z,24.73
2022-11-24T21:53:36.808Z,22.60
2022-11-24T21:56:06.383Z,26.80
2022-11-24T21:58:34.775Z,23.58
2022-11-24T22:01:03.637Z,22.40
2022-11-24T22:03:31.443Z,32.63
2022-11-24T22:06:01.859Z,46.30
2022-11-24T22:08:31.160Z,54.53
2022-11-24T22:11:01.867Z,30.90
2022-11-24T22:13:29.974Z,32.67
2022-11-24T22:16:02.062Z,31.30
2022-11-24T22:18:33.950Z,28.98
2022-11-24T22:21:03.877Z,29.52
2022-11-24T22:23:32.379Z,23.67
2022-11-24T22:26:03.776Z,26.00
2022-11-24T22:28:33.114Z,28.98
2022-11-24T22:31:05.726Z,28.60
2022-11-24T22:33:33.966Z,21.55
2022-11-24T22:36:03.832Z,25.55
2022-11-24T22:38:32.902Z,29.02
2022-11-24T22:41:03.981Z,23.92
2022-11-24T22:43:33.394Z,22.80
2022-11-24T22:46:05.792Z,28.67
2022-11-24T22:48:34.359Z,23.75
2022-11-24T22:51:04.483Z,27.38
2022-11-24T22:53:32.539Z,30.58
2022-11-24T22:56:03.862Z,30.17
2022-11-24T22:58:31.666Z,22.25
2022-11-24T23:01:05.070Z,28.77
2022-11-24T23:03:33.157Z,25.45
2022-11-24T23:06:01.552Z,25.65
2022-11-24T23:08:32.924Z,26.80
2022-11-24T23:11:02.044Z,24.17
2022-11-24T23:13:30.080Z,22.40
2022-11-24T23:16:02.086Z,25.98
2022-11-24T23:18:30.085Z,29.15
2022-11-24T23:20:58.002Z,29.95
2022-11-24T23:23:25.816Z,31.48
2022-11-24T23:25:54.844Z,25.48
2022-11-24T23:28:22.548Z,27.95
2022-11-24T23:30:50.359Z,26.27
2022-11-24T23:33:18.095Z,27.83
2022-11-24T23:35:45.764Z,25.42
2022-11-24T23:38:13.518Z,26.00
2022-11-24T23:40:41.202Z,29.30
2022-11-24T23:43:10.264Z,27.13
2022-11-24T23:45:38.024Z,30.13
2022-11-24T23:48:08.429Z,28.33
2022-11-24T23:50:36.214Z,30.05
2022-11-24T23:53:03.895Z,29.77
2022-11-24T23:55:31.785Z,24.25
2022-11-24T23:57:59.490Z,32.92
